Bardonia, New York
Current Conditions -  °F | °C
As of 12:56 PM on Thursday 30 Oct 2014 (Local Time) from KHPN Reporting Station
Few Clouds Few Clouds  
Wind Chill: 55°   Ceiling: Unl
Heat Index: 55°   Visibility: 10mi
Dew Point: 39°   Wind: 10mph
Humidity: 55%   Direction: 320°NW
Pressure: 29.97"   Gusts: NA
Location:  41.0984°N, 74.0095°W
Report Text: KHPN 301656Z AUTO 32009KT 10SM FEW036 13/04 A2997 RMK AO2 SLP151 T01280039 TSNO
Loading
Personal Weather Stations






























Interactive Weather Map
Tropical Storm Tracking
New forecast layout! Learn more

10-Day Weather Forecast

Advertisements
Track Severe Weather on mobile